sensor_id;sensor_type;location;lat;lon;timestamp;pressure;altitude;pressure_sealevel;temperature;humidity
8047;BME280;74083;42.516;23.358;2024-01-27T00:00:32;88698.50;;;2.26;59.10
8047;BME280;74083;42.516;23.358;2024-01-27T00:03:18;88691.94;;;2.25;58.85
8047;BME280;74083;42.516;23.358;2024-01-27T00:06:03;88690.31;;;2.24;58.89
8047;BME280;74083;42.516;23.358;2024-01-27T00:08:49;88685.34;;;2.24;58.47
8047;BME280;74083;42.516;23.358;2024-01-27T00:11:35;88673.78;;;2.23;58.21
8047;BME280;74083;42.516;23.358;2024-01-27T00:14:20;88673.03;;;2.21;57.84
8047;BME280;74083;42.516;23.358;2024-01-27T00:17:08;88679.75;;;2.19;57.66
8047;BME280;74083;42.516;23.358;2024-01-27T00:19:53;88679.75;;;2.19;57.28
8047;BME280;74083;42.516;23.358;2024-01-27T00:22:39;88683.94;;;2.17;57.58
8047;BME280;74083;42.516;23.358;2024-01-27T00:25:24;88677.31;;;2.18;57.72
8047;BME280;74083;42.516;23.358;2024-01-27T00:28:10;88665.81;;;2.15;57.68
8047;BME280;74083;42.516;23.358;2024-01-27T00:30:56;88669.16;;;2.14;58.01
8047;BME280;74083;42.516;23.358;2024-01-27T00:33:42;88672.44;;;2.15;58.92
8047;BME280;74083;42.516;23.358;2024-01-27T00:36:28;88670.91;;;2.12;58.38
8047;BME280;74083;42.516;23.358;2024-01-27T00:39:13;88665.19;;;2.10;58.42
8047;BME280;74083;42.516;23.358;2024-01-27T00:41:59;88672.66;;;2.10;58.15
8047;BME280;74083;42.516;23.358;2024-01-27T00:44:44;88679.22;;;2.11;58.64
8047;BME280;74083;42.516;23.358;2024-01-27T00:47:30;88670.09;;;2.12;59.67
8047;BME280;74083;42.516;23.358;2024-01-27T00:50:17;88662.47;;;2.16;59.76
8047;BME280;74083;42.516;23.358;2024-01-27T00:53:03;88665.81;;;2.15;59.89
8047;BME280;74083;42.516;23.358;2024-01-27T00:55:48;88679.09;;;2.14;59.60
8047;BME280;74083;42.516;23.358;2024-01-27T00:58:34;88674.94;;;2.15;59.74
8047;BME280;74083;42.516;23.358;2024-01-27T01:01:20;88676.69;;;2.13;59.90
8047;BME280;74083;42.516;23.358;2024-01-27T01:04:06;88678.31;;;2.14;58.99
8047;BME280;74083;42.516;23.358;2024-01-27T01:06:54;88679.09;;;2.14;58.99
8047;BME280;74083;42.516;23.358;2024-01-27T01:09:39;88674.19;;;2.13;59.79
8047;BME280;74083;42.516;23.358;2024-01-27T01:12:25;88671.75;;;2.11;59.66
8047;BME280;74083;42.516;23.358;2024-01-27T01:15:10;88658.56;;;2.11;59.12
8047;BME280;74083;42.516;23.358;2024-01-27T01:17:57;88642.81;;;2.10;59.00
8047;BME280;74083;42.516;23.358;2024-01-27T01:20:42;88646.91;;;2.11;58.78
8047;BME280;74083;42.516;23.358;2024-01-27T01:23:29;88646.16;;;2.09;59.05
8047;BME280;74083;42.516;23.358;2024-01-27T01:26:15;88644.56;;;2.08;59.39
8047;BME280;74083;42.516;23.358;2024-01-27T01:29:00;88657.00;;;2.08;59.19
8047;BME280;74083;42.516;23.358;2024-01-27T01:31:46;88652.88;;;2.07;59.10
8047;BME280;74083;42.516;23.358;2024-01-27T01:34:31;88661.97;;;2.08;59.59
8047;BME280;74083;42.516;23.358;2024-01-27T01:37:18;88658.69;;;2.08;59.70
8047;BME280;74083;42.516;23.358;2024-01-27T01:40:06;88652.88;;;2.07;59.81
8047;BME280;74083;42.516;23.358;2024-01-27T01:42:52;88656.13;;;2.09;60.38
8047;BME280;74083;42.516;23.358;2024-01-27T01:45:38;88661.97;;;2.08;59.88
8047;BME280;74083;42.516;23.358;2024-01-27T01:48:23;88649.72;;;2.04;60.17
8047;BME280;74083;42.516;23.358;2024-01-27T01:51:09;88655.38;;;2.07;59.86
8047;BME280;74083;42.516;23.358;2024-01-27T01:53:58;88660.34;;;2.07;60.60
8047;BME280;74083;42.516;23.358;2024-01-27T01:56:45;88647.09;;;2.07;60.55
8047;BME280;74083;42.516;23.358;2024-01-27T01:59:31;88665.31;;;2.07;60.46
8047;BME280;74083;42.516;23.358;2024-01-27T02:02:17;88649.59;;;2.07;60.52
8047;BME280;74083;42.516;23.358;2024-01-27T02:05:02;88638.84;;;2.06;60.01
8047;BME280;74083;42.516;23.358;2024-01-27T02:07:48;88653.81;;;2.05;60.57
8047;BME280;74083;42.516;23.358;2024-01-27T02:10:34;88663.88;;;2.02;60.16
8047;BME280;74083;42.516;23.358;2024-01-27T02:13:23;88650.63;;;2.01;60.55
8047;BME280;74083;42.516;23.358;2024-01-27T02:16:08;88644.81;;;2.02;60.37
8047;BME280;74083;42.516;23.358;2024-01-27T02:18:54;88642.34;;;2.02;60.09
8047;BME280;74083;42.516;23.358;2024-01-27T02:21:39;88634.91;;;2.01;60.27
8047;BME280;74083;42.516;23.358;2024-01-27T02:24:26;88628.28;;;2.01;60.10
8047;BME280;74083;42.516;23.358;2024-01-27T02:27:12;88622.47;;;2.02;60.38
8047;BME280;74083;42.516;23.358;2024-01-27T02:29:58;88613.38;;;2.01;60.32
8047;BME280;74083;42.516;23.358;2024-01-27T02:32:43;88612.69;;;1.98;59.60
8047;BME280;74083;42.516;23.358;2024-01-27T02:35:29;88606.91;;;1.97;59.58
8047;BME280;74083;42.516;23.358;2024-01-27T02:38:14;88611.88;;;1.97;60.40
8047;BME280;74083;42.516;23.358;2024-01-27T02:41:01;88609.47;;;1.96;59.89
8047;BME280;74083;42.516;23.358;2024-01-27T02:43:47;88620.22;;;1.96;59.83
8047;BME280;74083;42.516;23.358;2024-01-27T02:46:32;88616.84;;;1.97;59.92
8047;BME280;74083;42.516;23.358;2024-01-27T02:49:17;88621.06;;;1.95;59.26
8047;BME280;74083;42.516;23.358;2024-01-27T02:52:03;88609.47;;;1.96;59.43
8047;BME280;74083;42.516;23.358;2024-01-27T02:54:49;88621.81;;;1.97;60.65
8047;BME280;74083;42.516;23.358;2024-01-27T02:57:35;88612.69;;;1.98;60.80
8047;BME280;74083;42.516;23.358;2024-01-27T03:00:21;88612.63;;;1.99;60.91
8047;BME280;74083;42.516;23.358;2024-01-27T03:03:08;88615.91;;;2.00;61.65
8047;BME280;74083;42.516;23.358;2024-01-27T03:05:53;88614.22;;;2.00;61.26
8047;BME280;74083;42.516;23.358;2024-01-27T03:08:39;88607.59;;;2.01;61.56
8047;BME280;74083;42.516;23.358;2024-01-27T03:11:24;88605.09;;;2.01;61.93
8047;BME280;74083;42.516;23.358;2024-01-27T03:14:11;88614.22;;;2.00;61.52
8047;BME280;74083;42.516;23.358;2024-01-27T03:16:58;88613.38;;;2.01;61.63
8047;BME280;74083;42.516;23.358;2024-01-27T03:19:43;88624.16;;;2.00;61.78
8047;BME280;74083;42.516;23.358;2024-01-27T03:22:29;88629.91;;;2.02;61.80
8047;BME280;74083;42.516;23.358;2024-01-27T03:25:14;88629.91;;;2.02;61.92
8047;BME280;74083;42.516;23.358;2024-01-27T03:27:59;88626.59;;;2.02;62.01
8047;BME280;74083;42.516;23.358;2024-01-27T03:30:47;88621.63;;;2.02;62.20
8047;BME280;74083;42.516;23.358;2024-01-27T03:33:33;88627.41;;;2.02;61.94
8047;BME280;74083;42.516;23.358;2024-01-27T03:36:18;88629.09;;;2.02;61.59
8047;BME280;74083;42.516;23.358;2024-01-27T03:39:03;88614.22;;;2.00;61.36
8047;BME280;74083;42.516;23.358;2024-01-27T03:41:49;88616.84;;;1.97;61.30
8047;BME280;74083;42.516;23.358;2024-01-27T03:44:34;88618.47;;;1.98;61.03
8047;BME280;74083;42.516;23.358;2024-01-27T03:47:21;88612.69;;;1.98;61.15
8047;BME280;74083;42.516;23.358;2024-01-27T03:50:07;88613.50;;;1.98;61.24
8047;BME280;74083;42.516;23.358;2024-01-27T03:52:53;88599.41;;;1.99;61.13
8047;BME280;74083;42.516;23.358;2024-01-27T03:55:38;88589.47;;;1.99;61.46
8047;BME280;74083;42.516;23.358;2024-01-27T03:58:25;88600.22;;;1.99;61.58
8047;BME280;74083;42.516;23.358;2024-01-27T04:01:10;88596.09;;;1.98;61.79
8047;BME280;74083;42.516;23.358;2024-01-27T04:03:57;88598.59;;;1.98;61.91
8047;BME280;74083;42.516;23.358;2024-01-27T04:06:43;88596.03;;;2.00;62.08
8047;BME280;74083;42.516;23.358;2024-01-27T04:09:28;88596.03;;;2.00;61.77
8047;BME280;74083;42.516;23.358;2024-01-27T04:12:14;88603.47;;;2.00;62.06
8047;BME280;74083;42.516;23.358;2024-01-27T04:14:59;88581.94;;;2.00;62.02
8047;BME280;74083;42.516;23.358;2024-01-27T04:17:45;88600.22;;;1.99;62.38
8047;BME280;74083;42.516;23.358;2024-01-27T04:20:32;88623.44;;;1.98;62.33
8047;BME280;74083;42.516;23.358;2024-01-27T04:23:17;88606.84;;;1.99;62.44
8047;BME280;74083;42.516;23.358;2024-01-27T04:26:03;88611.81;;;1.99;62.23
8047;BME280;74083;42.516;23.358;2024-01-27T04:28:50;88599.41;;;1.99;62.51
8047;BME280;74083;42.516;23.358;2024-01-27T04:31:39;88588.66;;;1.98;62.21
8047;BME280;74083;42.516;23.358;2024-01-27T04:34:25;88586.91;;;2.00;62.15
8047;BME280;74083;42.516;23.358;2024-01-27T04:37:12;88589.59;;;1.96;62.64
8047;BME280;74083;42.516;23.358;2024-01-27T04:39:58;88587.91;;;1.96;62.54
8047;BME280;74083;42.516;23.358;2024-01-27T04:42:43;88601.19;;;1.95;62.29
8047;BME280;74083;42.516;23.358;2024-01-27T04:45:29;88591.34;;;1.94;62.59
8047;BME280;74083;42.516;23.358;2024-01-27T04:48:15;88593.97;;;1.89;62.24
8047;BME280;74083;42.516;23.358;2024-01-27T04:51:01;88587.25;;;1.91;62.03
8047;BME280;74083;42.516;23.358;2024-01-27T04:53:48;88597.31;;;1.88;62.53
8047;BME280;74083;42.516;23.358;2024-01-27T04:56:34;88599.81;;;1.88;62.31
8047;BME280;74083;42.516;23.358;2024-01-27T04:59:21;88600.69;;;1.87;62.27
8047;BME280;74083;42.516;23.358;2024-01-27T05:02:07;88602.41;;;1.85;62.67
8047;BME280;74083;42.516;23.358;2024-01-27T05:04:53;88604.97;;;1.84;62.84
8047;BME280;74083;42.516;23.358;2024-01-27T05:07:38;88601.66;;;1.83;62.90
8047;BME280;74083;42.516;23.358;2024-01-27T05:10:25;88608.38;;;1.81;63.61
8047;BME280;74083;42.516;23.358;2024-01-27T05:13:11;88600.13;;;1.81;63.26
8047;BME280;74083;42.516;23.358;2024-01-27T05:15:56;88615.84;;;1.81;63.47
8047;BME280;74083;42.516;23.358;2024-01-27T05:18:41;88610.06;;;1.81;63.92
8047;BME280;74083;42.516;23.358;2024-01-27T05:21:28;88622.47;;;1.81;63.70
8047;BME280;74083;42.516;23.358;2024-01-27T05:24:13;88620.03;;;1.79;64.59
8047;BME280;74083;42.516;23.358;2024-01-27T05:27:00;88607.69;;;1.78;63.98
8047;BME280;74083;42.516;23.358;2024-01-27T05:29:46;88634.06;;;1.80;64.47
8047;BME280;74083;42.516;23.358;2024-01-27T05:32:32;88624.97;;;1.81;64.09
8047;BME280;74083;42.516;23.358;2024-01-27T05:35:17;88630.75;;;1.81;64.53
8047;BME280;74083;42.516;23.358;2024-01-27T05:38:03;88614.22;;;1.80;64.33
8047;BME280;74083;42.516;23.358;2024-01-27T05:40:49;88627.38;;;1.82;64.71
8047;BME280;74083;42.516;23.358;2024-01-27T05:43:36;88622.47;;;1.81;64.21
8047;BME280;74083;42.516;23.358;2024-01-27T05:46:22;88629.94;;;1.81;64.71
8047;BME280;74083;42.516;23.358;2024-01-27T05:49:07;88629.84;;;1.82;64.82
8047;BME280;74083;42.516;23.358;2024-01-27T05:51:53;88624.09;;;1.82;64.96
8047;BME280;74083;42.516;23.358;2024-01-27T05:54:39;88629.72;;;1.85;64.99
8047;BME280;74083;42.516;23.358;2024-01-27T05:57:25;88613.22;;;1.84;64.91
8047;BME280;74083;42.516;23.358;2024-01-27T06:00:13;88598.44;;;1.81;65.36
8047;BME280;74083;42.516;23.358;2024-01-27T06:02:59;88616.69;;;1.80;64.94
8047;BME280;74083;42.516;23.358;2024-01-27T06:05:44;88612.53;;;1.81;65.69
8047;BME280;74083;42.516;23.358;2024-01-27T06:08:30;88620.72;;;1.83;66.39
8047;BME280;74083;42.516;23.358;2024-01-27T06:11:23;88629.94;;;1.81;66.49
8047;BME280;74083;42.516;23.358;2024-01-27T06:14:09;88637.31;;;1.82;66.69
8047;BME280;74083;42.516;23.358;2024-01-27T06:16:56;88635.72;;;1.81;66.78
8047;BME280;74083;42.516;23.358;2024-01-27T06:19:42;88620.81;;;1.81;66.61
8047;BME280;74083;42.516;23.358;2024-01-27T06:22:27;88627.44;;;1.81;66.84
8047;BME280;74083;42.516;23.358;2024-01-27T06:25:12;88640.69;;;1.81;67.50
8047;BME280;74083;42.516;23.358;2024-01-27T06:27:58;88658.91;;;1.80;67.51
8047;BME280;74083;42.516;23.358;2024-01-27T06:30:44;88678.75;;;1.82;66.94
8047;BME280;74083;42.516;23.358;2024-01-27T06:33:31;88641.41;;;1.83;67.24
8047;BME280;74083;42.516;23.358;2024-01-27T06:36:16;88651.31;;;1.85;67.38
8047;BME280;74083;42.516;23.358;2024-01-27T06:39:02;88623.88;;;1.88;67.50
8047;BME280;74083;42.516;23.358;2024-01-27T06:41:48;88633.91;;;1.85;67.42
8047;BME280;74083;42.516;23.358;2024-01-27T06:44:33;88662.91;;;1.84;67.58
8047;BME280;74083;42.516;23.358;2024-01-27T06:47:19;88670.28;;;1.86;67.41
8047;BME280;74083;42.516;23.358;2024-01-27T06:50:07;88652.03;;;1.87;67.82
8047;BME280;74083;42.516;23.358;2024-01-27T06:52:53;88651.97;;;1.88;67.47
8047;BME280;74083;42.516;23.358;2024-01-27T06:55:38;88648.72;;;1.88;67.49
8047;BME280;74083;42.516;23.358;2024-01-27T06:58:24;88648.63;;;1.89;67.66
8047;BME280;74083;42.516;23.358;2024-01-27T07:01:10;88647.78;;;1.90;67.41
8047;BME280;74083;42.516;23.358;2024-01-27T07:03:55;88625.41;;;1.90;67.87
8047;BME280;74083;42.516;23.358;2024-01-27T07:06:42;88658.56;;;1.89;67.96
8047;BME280;74083;42.516;23.358;2024-01-27T07:09:27;88621.16;;;1.94;67.51
8047;BME280;74083;42.516;23.358;2024-01-27T07:12:13;88623.78;;;1.89;67.49
8047;BME280;74083;42.516;23.358;2024-01-27T07:14:58;88617.88;;;1.92;67.55
8047;BME280;74083;42.516;23.358;2024-01-27T07:17:44;88630.38;;;1.90;67.85
8047;BME280;74083;42.516;23.358;2024-01-27T07:20:30;88640.94;;;1.95;67.82
8047;BME280;74083;42.516;23.358;2024-01-27T07:23:17;88617.03;;;1.93;67.44
8047;BME280;74083;42.516;23.358;2024-01-27T07:26:03;88637.03;;;1.90;67.40
8047;BME280;74083;42.516;23.358;2024-01-27T07:28:49;88620.34;;;1.93;67.79
8047;BME280;74083;42.516;23.358;2024-01-27T07:31:34;88616.97;;;1.94;67.43
8047;BME280;74083;42.516;23.358;2024-01-27T07:34:20;88614.56;;;1.93;67.25
8047;BME280;74083;42.516;23.358;2024-01-27T07:37:05;88609.56;;;1.93;67.51
8047;BME280;74083;42.516;23.358;2024-01-27T07:39:52;88610.50;;;1.90;67.32
8047;BME280;74083;42.516;23.358;2024-01-27T07:42:38;88621.88;;;1.96;67.05
8047;BME280;74083;42.516;23.358;2024-01-27T07:45:24;88635.13;;;1.96;66.68
8047;BME280;74083;42.516;23.358;2024-01-27T07:48:09;88639.56;;;1.88;66.65
8047;BME280;74083;42.516;23.358;2024-01-27T07:50:55;88644.53;;;1.88;66.68
8047;BME280;74083;42.516;23.358;2024-01-27T07:53:42;88653.56;;;1.91;66.21
8047;BME280;74083;42.516;23.358;2024-01-27T07:56:29;88665.09;;;1.92;66.23
8047;BME280;74083;42.516;23.358;2024-01-27T07:59:14;88646.09;;;1.91;66.30
8047;BME280;74083;42.516;23.358;2024-01-27T08:02:00;88651.94;;;1.90;66.65
8047;BME280;74083;42.516;23.358;2024-01-27T08:04:46;88680.06;;;1.90;66.68
8047;BME280;74083;42.516;23.358;2024-01-27T08:07:32;88668.47;;;1.91;66.86
8047;BME280;74083;42.516;23.358;2024-01-27T08:10:18;88692.59;;;1.87;66.74
8047;BME280;74083;42.516;23.358;2024-01-27T08:13:04;88704.91;;;1.90;66.55
8047;BME280;74083;42.516;23.358;2024-01-27T08:15:51;88707.31;;;1.92;66.33
8047;BME280;74083;42.516;23.358;2024-01-27T08:18:37;88719.03;;;1.88;66.69
8047;BME280;74083;42.516;23.358;2024-01-27T08:21:22;88725.81;;;1.85;66.34
8047;BME280;74083;42.516;23.358;2024-01-27T08:24:08;88722.34;;;1.89;66.53
8047;BME280;74083;42.516;23.358;2024-01-27T08:26:54;88724.13;;;1.85;66.15
8047;BME280;74083;42.516;23.358;2024-01-27T08:29:41;88709.22;;;1.85;66.41
8047;BME280;74083;42.516;23.358;2024-01-27T08:32:27;88681.03;;;1.86;66.53
8047;BME280;74083;42.516;23.358;2024-01-27T08:35:12;88719.94;;;1.87;66.53
8047;BME280;74083;42.516;23.358;2024-01-27T08:37:58;88723.16;;;1.89;66.34
8047;BME280;74083;42.516;23.358;2024-01-27T08:40:43;88728.97;;;1.88;65.96
8047;BME280;74083;42.516;23.358;2024-01-27T08:43:29;88676.94;;;1.85;66.00
8047;BME280;74083;42.516;23.358;2024-01-27T08:46:15;88663.63;;;1.88;66.13
8047;BME280;74083;42.516;23.358;2024-01-27T08:49:03;88733.91;;;1.90;65.67
8047;BME280;74083;42.516;23.358;2024-01-27T08:51:49;88744.88;;;1.84;65.69
8047;BME280;74083;42.516;23.358;2024-01-27T08:54:35;88625.78;;;1.81;65.78
8047;BME280;74083;42.516;23.358;2024-01-27T08:57:20;88720.38;;;1.75;65.14
8047;BME280;74083;42.516;23.358;2024-01-27T09:18:35;88773.78;;;2.08;64.36
8047;BME280;74083;42.516;23.358;2024-01-27T09:21:21;88764.28;;;2.18;63.66
8047;BME280;74083;42.516;23.358;2024-01-27T09:24:12;88782.69;;;2.14;63.48
8047;BME280;74083;42.516;23.358;2024-01-27T09:26:58;88759.63;;;2.10;63.64
8047;BME280;74083;42.516;23.358;2024-01-27T09:29:43;88792.16;;;2.04;63.63
8047;BME280;74083;42.516;23.358;2024-01-27T09:32:29;88759.84;;;2.04;63.79
8047;BME280;74083;42.516;23.358;2024-01-27T09:35:16;88725.09;;;2.03;63.85
8047;BME280;74083;42.516;23.358;2024-01-27T09:38:02;88772.50;;;1.98;64.29
8047;BME280;74083;42.516;23.358;2024-01-27T09:40:48;88749.41;;;1.96;64.68
8047;BME280;74083;42.516;23.358;2024-01-27T09:43:34;88772.50;;;1.98;64.52
8047;BME280;74083;42.516;23.358;2024-01-27T09:46:21;88770.25;;;1.92;64.51
8047;BME280;74083;42.516;23.358;2024-01-27T09:49:08;88772.72;;;1.92;64.48
8047;BME280;74083;42.516;23.358;2024-01-27T09:51:59;88772.81;;;1.91;64.20
8047;BME280;74083;42.516;23.358;2024-01-27T09:54:45;88762.78;;;1.92;64.47
8047;BME280;74083;42.516;23.358;2024-01-27T09:57:30;88788.50;;;1.91;64.59
8047;BME280;74083;42.516;23.358;2024-01-27T10:00:17;88759.69;;;1.87;64.65
8047;BME280;74083;42.516;23.358;2024-01-27T10:03:04;88777.81;;;1.89;64.98
8047;BME280;74083;42.516;23.358;2024-01-27T10:05:52;88781.16;;;1.88;65.15
8047;BME280;74083;42.516;23.358;2024-01-27T10:08:40;88783.81;;;1.84;65.03
8047;BME280;74083;42.516;23.358;2024-01-27T10:11:26;88787.75;;;1.89;65.30
8047;BME280;74083;42.516;23.358;2024-01-27T10:14:14;88782.06;;;1.86;65.06
8047;BME280;74083;42.516;23.358;2024-01-27T10:17:00;88781.22;;;1.87;65.22
8047;BME280;74083;42.516;23.358;2024-01-27T10:19:45;88750.59;;;1.86;65.25
8047;BME280;74083;42.516;23.358;2024-01-27T10:22:37;88761.28;;;1.88;65.54
8047;BME280;74083;42.516;23.358;2024-01-27T10:25:24;88765.47;;;1.88;65.68
8047;BME280;74083;42.516;23.358;2024-01-27T10:28:10;88773.66;;;1.90;65.90
8047;BME280;74083;42.516;23.358;2024-01-27T10:31:07;88762.06;;;1.90;65.68
8047;BME280;74083;42.516;23.358;2024-01-27T10:33:54;88730.59;;;1.89;65.88
8047;BME280;74083;42.516;23.358;2024-01-27T10:36:40;88759.59;;;1.89;66.15
8047;BME280;74083;42.516;23.358;2024-01-27T10:39:26;88745.50;;;1.89;65.84
8047;BME280;74083;42.516;23.358;2024-01-27T10:42:13;88738.88;;;1.90;65.86
8047;BME280;74083;42.516;23.358;2024-01-27T10:45:00;88723.13;;;1.91;65.75
8047;BME280;74083;42.516;23.358;2024-01-27T10:47:47;88726.38;;;1.91;65.72
8047;BME280;74083;42.516;23.358;2024-01-27T10:50:36;88752.84;;;1.92;66.15
8047;BME280;74083;42.516;23.358;2024-01-27T10:53:23;88760.38;;;1.91;65.80
8047;BME280;74083;42.516;23.358;2024-01-27T10:56:11;88747.06;;;1.92;66.03
8047;BME280;74083;42.516;23.358;2024-01-27T10:58:59;88766.13;;;1.91;66.03
8047;BME280;74083;42.516;23.358;2024-01-27T11:01:46;88759.56;;;1.90;66.21
8047;BME280;74083;42.516;23.358;2024-01-27T11:04:32;88774.47;;;1.90;65.90
8047;BME280;74083;42.516;23.358;2024-01-27T11:07:20;88778.50;;;1.93;66.02
8047;BME280;74083;42.516;23.358;2024-01-27T11:10:07;88775.09;;;1.95;65.67
8047;BME280;74083;42.516;23.358;2024-01-27T11:12:54;88762.78;;;1.92;65.83
8047;BME280;74083;42.516;23.358;2024-01-27T11:15:50;88757.91;;;1.91;66.06
8047;BME280;74083;42.516;23.358;2024-01-27T11:18:36;88766.13;;;1.91;66.02
8047;BME280;74083;42.516;23.358;2024-01-27T11:21:21;88769.44;;;1.92;65.81
8047;BME280;74083;42.516;23.358;2024-01-27T11:24:15;88774.41;;;1.92;66.10
8047;BME280;74083;42.516;23.358;2024-01-27T11:27:01;88795.84;;;1.94;66.11
8047;BME280;74083;42.516;23.358;2024-01-27T11:29:47;88786.78;;;1.93;65.82
8047;BME280;74083;42.516;23.358;2024-01-27T11:32:36;88796.72;;;1.93;66.01
8047;BME280;74083;42.516;23.358;2024-01-27T11:35:22;88795.09;;;1.92;66.11
8047;BME280;74083;42.516;23.358;2024-01-27T11:38:08;88795.09;;;1.92;66.33
8047;BME280;74083;42.516;23.358;2024-01-27T11:40:53;88809.13;;;1.93;66.34
8047;BME280;74083;42.516;23.358;2024-01-27T11:43:39;88797.56;;;1.92;65.88
8047;BME280;74083;42.516;23.358;2024-01-27T11:46:25;88821.59;;;1.92;66.06
8047;BME280;74083;42.516;23.358;2024-01-27T11:49:14;88823.22;;;1.93;65.87
8047;BME280;74083;42.516;23.358;2024-01-27T11:52:00;88824.03;;;1.93;66.12
8047;BME280;74083;42.516;23.358;2024-01-27T11:54:53;88815.72;;;1.94;66.13
8047;BME280;74083;42.516;23.358;2024-01-27T11:57:38;88807.47;;;1.94;66.21
8047;BME280;74083;42.516;23.358;2024-01-27T12:00:24;88819.88;;;1.94;65.93
8047;BME280;74083;42.516;23.358;2024-01-27T12:03:10;88825.72;;;1.93;66.07
8047;BME280;74083;42.516;23.358;2024-01-27T12:05:57;88829.00;;;1.93;65.85
8047;BME280;74083;42.516;23.358;2024-01-27T12:08:43;88805.00;;;1.94;65.38
8047;BME280;74083;42.516;23.358;2024-01-27T12:11:30;88833.22;;;1.91;65.52
8047;BME280;74083;42.516;23.358;2024-01-27T12:14:17;88846.44;;;1.92;65.67
8047;BME280;74083;42.516;23.358;2024-01-27T12:17:02;88842.28;;;1.92;65.64
8047;BME280;74083;42.516;23.358;2024-01-27T12:19:49;88840.63;;;1.93;65.89
8047;BME280;74083;42.516;23.358;2024-01-27T12:22:38;88832.34;;;1.92;65.54
8047;BME280;74083;42.516;23.358;2024-01-27T12:25:23;88828.13;;;1.94;65.58
8047;BME280;74083;42.516;23.358;2024-01-27T12:28:09;88825.66;;;1.94;65.68
8047;BME280;74083;42.516;23.358;2024-01-27T12:30:55;88824.69;;;1.98;65.72
8047;BME280;74083;42.516;23.358;2024-01-27T12:33:41;88821.44;;;1.96;65.47
8047;BME280;74083;42.516;23.358;2024-01-27T12:36:33;88811.34;;;1.78;68.49
8047;BME280;74083;42.516;23.358;2024-01-27T12:39:20;88806.59;;;1.72;69.84
8047;BME280;74083;42.516;23.358;2024-01-27T12:42:06;88809.91;;;1.72;69.53
8047;BME280;74083;42.516;23.358;2024-01-27T12:44:52;88801.72;;;1.70;69.98
8047;BME280;74083;42.516;23.358;2024-01-27T12:47:37;88796.75;;;1.70;70.09
8047;BME280;74083;42.516;23.358;2024-01-27T12:50:24;88813.72;;;1.81;69.72
8047;BME280;74083;42.516;23.358;2024-01-27T12:53:10;88801.25;;;1.82;69.23
8047;BME280;74083;42.516;23.358;2024-01-27T12:55:57;88792.81;;;1.86;69.10
8047;BME280;74083;42.516;23.358;2024-01-27T12:58:43;88785.91;;;1.94;70.00
8047;BME280;74083;42.516;23.358;2024-01-27T13:01:29;88801.28;;;2.04;70.28
8047;BME280;74083;42.516;23.358;2024-01-27T13:04:14;88785.56;;;2.03;67.99
8047;BME280;74083;42.516;23.358;2024-01-27T13:07:00;88787.53;;;2.17;68.64
8047;BME280;74083;42.516;23.358;2024-01-27T13:09:46;88798.66;;;2.08;68.92
8047;BME280;74083;42.516;23.358;2024-01-27T13:12:32;88778.63;;;2.11;67.30
8047;BME280;74083;42.516;23.358;2024-01-27T13:15:19;88779.97;;;2.20;66.87
8047;BME280;74083;42.516;23.358;2024-01-27T13:18:06;88800.13;;;2.12;66.85
8047;BME280;74083;42.516;23.358;2024-01-27T13:20:51;88771.00;;;2.16;67.31
8047;BME280;74083;42.516;23.358;2024-01-27T13:23:37;88780.88;;;2.17;67.15
8047;BME280;74083;42.516;23.358;2024-01-27T13:26:23;88796.50;;;2.21;66.24
8047;BME280;74083;42.516;23.358;2024-01-27T13:29:10;88788.22;;;2.20;66.65
8047;BME280;74083;42.516;23.358;2024-01-27T13:31:56;88789.84;;;2.21;65.12
8047;BME280;74083;42.516;23.358;2024-01-27T13:34:42;88776.78;;;2.16;65.49
8047;BME280;74083;42.516;23.358;2024-01-27T13:37:28;88762.97;;;2.09;65.65
8047;BME280;74083;42.516;23.358;2024-01-27T13:40:17;88758.75;;;2.11;64.98
8047;BME280;74083;42.516;23.358;2024-01-27T13:43:03;88786.16;;;2.10;64.89
8047;BME280;74083;42.516;23.358;2024-01-27T13:45:51;88804.47;;;2.07;65.71
8047;BME280;74083;42.516;23.358;2024-01-27T13:48:39;88812.84;;;2.05;66.01
8047;BME280;74083;42.516;23.358;2024-01-27T13:51:25;88817.81;;;2.05;65.03
8047;BME280;74083;42.516;23.358;2024-01-27T13:54:11;88813.59;;;2.07;63.52
8047;BME280;74083;42.516;23.358;2024-01-27T13:56:56;88825.44;;;2.00;64.64
8047;BME280;74083;42.516;23.358;2024-01-27T13:59:42;88827.91;;;2.00;64.28
8047;BME280;74083;42.516;23.358;2024-01-27T14:02:29;88830.56;;;1.96;65.40
8047;BME280;74083;42.516;23.358;2024-01-27T14:05:15;88840.41;;;1.99;63.52
8047;BME280;74083;42.516;23.358;2024-01-27T14:08:01;88852.94;;;1.96;64.40
8047;BME280;74083;42.516;23.358;2024-01-27T14:10:48;88858.72;;;1.96;64.36
8047;BME280;74083;42.516;23.358;2024-01-27T14:13:36;88855.53;;;1.93;64.41
8047;BME280;74083;42.516;23.358;2024-01-27T14:16:22;88874.59;;;1.92;64.00
8047;BME280;74083;42.516;23.358;2024-01-27T14:19:09;88871.28;;;1.92;61.98
8047;BME280;74083;42.516;23.358;2024-01-27T14:21:55;88883.78;;;1.90;61.72
8047;BME280;74083;42.516;23.358;2024-01-27T14:24:40;88876.13;;;1.96;61.41
8047;BME280;74083;42.516;23.358;2024-01-27T14:27:26;88902.88;;;1.88;61.60
8047;BME280;74083;42.516;23.358;2024-01-27T14:30:13;88883.88;;;1.87;62.67
8047;BME280;74083;42.516;23.358;2024-01-27T14:32:59;88896.34;;;1.86;61.94
8047;BME280;74083;42.516;23.358;2024-01-27T14:35:46;88883.38;;;2.01;58.98
8047;BME280;74083;42.516;23.358;2024-01-27T14:38:31;88884.69;;;1.88;60.27
8047;BME280;74083;42.516;23.358;2024-01-27T14:41:17;88886.63;;;1.80;61.06
8047;BME280;74083;42.516;23.358;2024-01-27T14:44:03;88887.41;;;1.82;61.91
8047;BME280;74083;42.516;23.358;2024-01-27T14:46:49;88906.44;;;1.81;60.71
8047;BME280;74083;42.516;23.358;2024-01-27T14:49:35;88887.31;;;1.83;61.34
8047;BME280;74083;42.516;23.358;2024-01-27T14:52:23;88909.66;;;1.85;60.61
8047;BME280;74083;42.516;23.358;2024-01-27T14:55:08;88916.22;;;1.86;59.69
8047;BME280;74083;42.516;23.358;2024-01-27T14:57:56;88895.41;;;1.88;60.89
8047;BME280;74083;42.516;23.358;2024-01-27T15:00:42;88898.00;;;1.85;60.53
8047;BME280;74083;42.516;23.358;2024-01-27T15:03:28;88893.28;;;2.02;61.67
8047;BME280;74083;42.516;23.358;2024-01-27T15:06:13;88914.22;;;1.95;60.96
8047;BME280;74083;42.516;23.358;2024-01-27T15:09:00;88903.56;;;1.93;60.64